createdAt,value
2017-07-29T00:00:00.034Z,802.32
2017-07-29T00:00:04.266Z,802.36
2017-07-29T00:00:08.500Z,802.37
2017-07-29T00:00:12.867Z,802.36
2017-07-29T00:00:17.232Z,802.37
2017-07-29T00:00:21.694Z,802.4
2017-07-29T00:00:26.035Z,802.35
2017-07-29T00:00:30.529Z,802.36
2017-07-29T00:00:34.998Z,802.37
2017-07-29T00:00:39.462Z,802.39
2017-07-29T00:00:43.924Z,802.37
2017-07-29T00:00:48.393Z,802.39
2017-07-29T00:00:52.840Z,802.36
2017-07-29T00:00:57.188Z,802.39
2017-07-29T00:01:01.806Z,802.39
2017-07-29T00:01:06.137Z,802.33
2017-07-29T00:01:10.487Z,802.32
2017-07-29T00:01:14.817Z,802.37
2017-07-29T00:01:19.290Z,802.39
2017-07-29T00:01:23.632Z,802.36
2017-07-29T00:01:27.958Z,802.37
2017-07-29T00:01:32.422Z,802.41
2017-07-29T00:01:36.893Z,802.38
2017-07-29T00:01:41.122Z,802.34
2017-07-29T00:01:45.585Z,802.41
2017-07-29T00:01:50.062Z,802.33
2017-07-29T00:01:54.531Z,802.39
2017-07-29T00:01:58.865Z,802.4
2017-07-29T00:02:03.324Z,802.37
2017-07-29T00:02:07.804Z,802.37
2017-07-29T00:02:12.249Z,802.4
2017-07-29T00:02:16.716Z,802.39
2017-07-29T00:02:21.059Z,802.39
2017-07-29T00:02:25.414Z,802.38
2017-07-29T00:02:29.547Z,802.36
2017-07-29T00:02:33.879Z,802.36
2017-07-29T00:02:38.220Z,802.38
2017-07-29T00:02:42.581Z,802.37
2017-07-29T00:02:46.950Z,802.37
2017-07-29T00:02:51.308Z,802.41
2017-07-29T00:02:55.765Z,802.41
2017-07-29T00:03:00.141Z,802.38
2017-07-29T00:03:04.640Z,802.38
2017-07-29T00:03:09.105Z,802.39
2017-07-29T00:03:13.574Z,802.4
2017-07-29T00:03:17.916Z,802.41
2017-07-29T00:03:22.281Z,802.42
2017-07-29T00:03:26.618Z,802.38
2017-07-29T00:03:31.064Z,802.34
2017-07-29T00:03:35.520Z,802.36
2017-07-29T00:03:39.868Z,802.38
2017-07-29T00:03:44.334Z,802.38
2017-07-29T00:03:48.805Z,802.36
2017-07-29T00:03:53.294Z,802.34
2017-07-29T00:03:57.500Z,802.38
2017-07-29T00:04:01.849Z,802.38
2017-07-29T00:04:06.086Z,802.4
2017-07-29T00:04:10.451Z,802.41
2017-07-29T00:04:14.792Z,802.36
2017-07-29T00:04:19.242Z,802.44
2017-07-29T00:04:23.706Z,802.42
2017-07-29T00:04:28.182Z,802.41
2017-07-29T00:04:32.654Z,802.36
2017-07-29T00:04:37.108Z,802.39
2017-07-29T00:04:41.579Z,802.41
2017-07-29T00:04:46.020Z,802.41
2017-07-29T00:04:50.470Z,802.38
2017-07-29T00:04:54.829Z,802.41
2017-07-29T00:04:59.180Z,802.39
2017-07-29T00:05:03.650Z,802.39
2017-07-29T00:05:08.005Z,802.42
2017-07-29T00:05:12.352Z,802.38
2017-07-29T00:05:16.746Z,802.41
2017-07-29T00:05:21.206Z,802.44
2017-07-29T00:05:25.667Z,802.4
2017-07-29T00:05:30.119Z,802.44
2017-07-29T00:05:34.594Z,802.42
2017-07-29T00:05:38.936Z,802.44
2017-07-29T00:05:43.387Z,802.44
2017-07-29T00:05:47.839Z,802.44
2017-07-29T00:05:52.076Z,802.42
2017-07-29T00:05:56.418Z,802.41
2017-07-29T00:06:00.634Z,802.42
2017-07-29T00:06:05.242Z,802.42
2017-07-29T00:06:09.489Z,802.38
2017-07-29T00:06:13.943Z,802.41
2017-07-29T00:06:18.412Z,802.4
2017-07-29T00:06:22.875Z,802.41
2017-07-29T00:06:27.343Z,802.41
2017-07-29T00:06:31.563Z,802.39
2017-07-29T00:06:35.894Z,802.44
2017-07-29T00:06:40.239Z,802.4
2017-07-29T00:06:44.713Z,802.42
2017-07-29T00:06:49.172Z,802.43
2017-07-29T00:06:53.619Z,802.45
2017-07-29T00:06:57.963Z,802.42
2017-07-29T00:07:02.293Z,802.41
2017-07-29T00:07:06.750Z,802.41
2017-07-29T00:07:11.198Z,802.44
2017-07-29T00:07:15.649Z,802.44
2017-07-29T00:07:20.125Z,802.43
2017-07-29T00:07:24.583Z,802.39
2017-07-29T00:07:29.042Z,802.4
2017-07-29T00:07:33.372Z,802.36
2017-07-29T00:07:37.704Z,802.41
2017-07-29T00:07:42.165Z,802.45
2017-07-29T00:07:46.615Z,802.41
2017-07-29T00:07:50.968Z,802.41
2017-07-29T00:07:55.425Z,802.4
2017-07-29T00:07:59.774Z,802.4
2017-07-29T00:08:04.247Z,802.38
2017-07-29T00:08:08.384Z,802.42
2017-07-29T00:08:12.847Z,802.41
2017-07-29T00:08:17.185Z,802.44
2017-07-29T00:08:21.631Z,802.42
2017-07-29T00:08:26.080Z,802.43
2017-07-29T00:08:30.432Z,802.4
2017-07-29T00:08:34.776Z,802.39
2017-07-29T00:08:39.236Z,802.4
2017-07-29T00:08:43.695Z,802.43
2017-07-29T00:08:48.197Z,802.4
2017-07-29T00:08:52.536Z,802.39
2017-07-29T00:08:56.766Z,802.44
2017-07-29T00:09:01.223Z,802.44
2017-07-29T00:09:05.559Z,802.42
2017-07-29T00:09:09.912Z,802.44
2017-07-29T00:09:14.271Z,802.45
2017-07-29T00:09:18.733Z,802.4
2017-07-29T00:09:23.189Z,802.44
2017-07-29T00:09:27.527Z,802.42
2017-07-29T00:09:31.974Z,802.44
2017-07-29T00:09:36.197Z,802.42
2017-07-29T00:09:40.650Z,802.42
2017-07-29T00:09:45.088Z,802.43
2017-07-29T00:09:49.419Z,802.45
2017-07-29T00:09:53.656Z,802.43
2017-07-29T00:09:58.005Z,802.45
2017-07-29T00:10:02.455Z,802.46
2017-07-29T00:10:06.902Z,802.46
2017-07-29T00:10:11.136Z,802.45
2017-07-29T00:10:15.604Z,802.38
2017-07-29T00:10:20.058Z,802.46
2017-07-29T00:10:24.532Z,802.43
2017-07-29T00:10:29.034Z,802.4
2017-07-29T00:10:33.494Z,802.43
2017-07-29T00:10:37.825Z,802.43
2017-07-29T00:10:42.294Z,802.41
2017-07-29T00:10:46.750Z,802.43
2017-07-29T00:10:51.217Z,802.42
2017-07-29T00:10:55.433Z,802.41
2017-07-29T00:10:59.908Z,802.42
2017-07-29T00:11:04.289Z,802.41
2017-07-29T00:11:08.627Z,802.45
2017-07-29T00:11:13.090Z,802.43
2017-07-29T00:11:17.307Z,802.43
2017-07-29T00:11:21.776Z,802.46
2017-07-29T00:11:26.119Z,802.44
2017-07-29T00:11:30.599Z,802.41
2017-07-29T00:11:35.073Z,802.41
2017-07-29T00:11:39.418Z,802.36
2017-07-29T00:11:43.877Z,802.41
2017-07-29T00:11:48.340Z,802.4
2017-07-29T00:11:52.681Z,802.39
2017-07-29T00:11:57.035Z,802.41
2017-07-29T00:12:01.491Z,802.4
2017-07-29T00:12:06.139Z,802.41
2017-07-29T00:12:10.384Z,802.42
2017-07-29T00:12:14.846Z,802.35
2017-07-29T00:12:19.189Z,802.41
2017-07-29T00:12:23.649Z,802.41
2017-07-29T00:12:28.117Z,802.43
2017-07-29T00:12:32.585Z,802.4
2017-07-29T00:12:36.932Z,802.38
2017-07-29T00:12:41.283Z,802.36
2017-07-29T00:12:45.641Z,802.42
2017-07-29T00:12:49.866Z,802.4
2017-07-29T00:12:54.337Z,802.41
2017-07-29T00:12:58.792Z,802.36
2017-07-29T00:13:03.383Z,802.41
2017-07-29T00:13:07.732Z,802.39
2017-07-29T00:13:12.200Z,802.35
2017-07-29T00:13:16.699Z,802.42
2017-07-29T00:13:21.164Z,802.42
2017-07-29T00:13:25.638Z,802.34
2017-07-29T00:13:30.095Z,802.35
2017-07-29T00:13:34.439Z,802.36
2017-07-29T00:13:38.787Z,802.42
2017-07-29T00:13:43.240Z,802.37
2017-07-29T00:13:47.696Z,802.37
2017-07-29T00:13:52.043Z,802.41
2017-07-29T00:13:56.501Z,802.4
2017-07-29T00:14:00.843Z,802.41
2017-07-29T00:14:05.323Z,802.39
2017-07-29T00:14:09.658Z,802.39
2017-07-29T00:14:13.995Z,802.34
2017-07-29T00:14:18.451Z,802.4
2017-07-29T00:14:22.925Z,802.36
2017-07-29T00:14:27.395Z,802.41
2017-07-29T00:14:31.846Z,802.43
2017-07-29T00:14:36.183Z,802.43
2017-07-29T00:14:40.636Z,802.42
2017-07-29T00:14:44.997Z,802.41
2017-07-29T00:14:49.456Z,802.43
2017-07-29T00:14:53.792Z,802.42
2017-07-29T00:14:58.148Z,802.45
2017-07-29T00:15:02.494Z,802.43
2017-07-29T00:15:06.633Z,802.41
2017-07-29T00:15:10.964Z,802.42
2017-07-29T00:15:15.435Z,802.38
2017-07-29T00:15:19.902Z,802.46
2017-07-29T00:15:24.358Z,802.44
2017-07-29T00:15:28.811Z,802.44
2017-07-29T00:15:33.275Z,802.44
2017-07-29T00:15:37.513Z,802.46
2017-07-29T00:15:41.970Z,802.48
2017-07-29T00:15:46.443Z,802.45
2017-07-29T00:15:50.930Z,802.49
2017-07-29T00:15:55.392Z,802.47
2017-07-29T00:15:59.731Z,802.45
2017-07-29T00:16:04.290Z,802.48
2017-07-29T00:16:08.761Z,802.46
2017-07-29T00:16:13.221Z,802.43
2017-07-29T00:16:17.688Z,802.45
2017-07-29T00:16:22.041Z,802.49
2017-07-29T00:16:26.493Z,802.44
2017-07-29T00:16:30.939Z,802.44
2017-07-29T00:16:35.032Z,802.46
2017-07-29T00:16:39.388Z,802.46
2017-07-29T00:16:43.722Z,802.42
2017-07-29T00:16:48.061Z,802.47
2017-07-29T00:16:52.520Z,802.46
2017-07-29T00:16:57.001Z,802.46
2017-07-29T00:17:01.464Z,802.46
2017-07-29T00:17:05.687Z,802.48
2017-07-29T00:17:09.902Z,802.49
2017-07-29T00:17:14.358Z,802.5
2017-07-29T00:17:18.839Z,802.47
2017-07-29T00:17:23.307Z,802.47
2017-07-29T00:17:27.773Z,802.5
2017-07-29T00:17:32.247Z,802.5
2017-07-29T00:17:36.478Z,802.46
2017-07-29T00:17:40.825Z,802.48
2017-07-29T00:17:45.292Z,802.5
2017-07-29T00:17:49.761Z,802.48
2017-07-29T00:17:54.210Z,802.49
2017-07-29T00:17:58.558Z,802.46
2017-07-29T00:18:02.895Z,802.46
2017-07-29T00:18:07.112Z,802.45
2017-07-29T00:18:11.325Z,802.5
2017-07-29T00:18:15.785Z,802.45
2017-07-29T00:18:20.119Z,802.47
2017-07-29T00:18:24.599Z,802.52
2017-07-29T00:18:29.052Z,802.5
2017-07-29T00:18:33.384Z,802.52
2017-07-29T00:18:37.845Z,802.55
2017-07-29T00:18:42.308Z,802.52
2017-07-29T00:18:46.770Z,802.54
2017-07-29T00:18:51.234Z,802.52
2017-07-29T00:18:55.703Z,802.52
2017-07-29T00:18:59.804Z,802.56
2017-07-29T00:19:04.423Z,802.5
2017-07-29T00:19:08.771Z,802.54
2017-07-29T00:19:13.129Z,802.54
2017-07-29T00:19:17.579Z,802.54
2017-07-29T00:19:22.047Z,802.54
2017-07-29T00:19:26.382Z,802.54
2017-07-29T00:19:30.719Z,802.55
2017-07-29T00:19:35.051Z,802.57
2017-07-29T00:19:39.286Z,802.56
2017-07-29T00:19:43.748Z,802.56
2017-07-29T00:19:48.211Z,802.56
2017-07-29T00:19:52.644Z,802.56
2017-07-29T00:19:56.984Z,802.54
2017-07-29T00:20:01.333Z,802.57
2017-07-29T00:20:05.786Z,802.55
2017-07-29T00:20:10.111Z,802.59
2017-07-29T00:20:14.572Z,802.54
2017-07-29T00:20:19.040Z,802.55
2017-07-29T00:20:23.511Z,802.54
2017-07-29T00:20:27.841Z,802.53
2017-07-29T00:20:32.302Z,802.57
2017-07-29T00:20:36.526Z,802.58
2017-07-29T00:20:40.861Z,802.56
2017-07-29T00:20:45.318Z,802.54
2017-07-29T00:20:49.775Z,802.56
2017-07-29T00:20:54.243Z,802.58
2017-07-29T00:20:58.576Z,802.56
2017-07-29T00:21:03.352Z,802.59
2017-07-29T00:21:07.710Z,802.59
2017-07-29T00:21:12.187Z,802.65
2017-07-29T00:21:16.648Z,802.62
2017-07-29T00:21:21.112Z,802.61
2017-07-29T00:21:25.578Z,802.6
2017-07-29T00:21:29.949Z,802.56
2017-07-29T00:21:34.416Z,802.6
2017-07-29T00:21:38.883Z,802.62
2017-07-29T00:21:43.218Z,802.59
2017-07-29T00:21:47.673Z,802.64
2017-07-29T00:21:52.135Z,802.64
2017-07-29T00:21:56.615Z,802.63
2017-07-29T00:22:01.058Z,802.64
2017-07-29T00:22:05.723Z,802.62
2017-07-29T00:22:10.190Z,802.6
2017-07-29T00:22:14.665Z,802.65
2017-07-29T00:22:19.138Z,802.64
2017-07-29T00:22:23.601Z,802.62
2017-07-29T00:22:27.940Z,802.63
2017-07-29T00:22:32.408Z,802.65
2017-07-29T00:22:36.746Z,802.62
2017-07-29T00:22:41.194Z,802.64
2017-07-29T00:22:45.654Z,802.61
2017-07-29T00:22:50.098Z,802.65
2017-07-29T00:22:54.439Z,802.65
2017-07-29T00:22:58.770Z,802.64
2017-07-29T00:23:03.387Z,802.64
2017-07-29T00:23:07.880Z,802.61
2017-07-29T00:23:12.335Z,802.62
2017-07-29T00:23:16.807Z,802.59
2017-07-29T00:23:21.263Z,802.66
2017-07-29T00:23:25.735Z,802.65
2017-07-29T00:23:30.082Z,802.62
2017-07-29T00:23:34.418Z,802.62
2017-07-29T00:23:38.865Z,802.62
2017-07-29T00:23:43.355Z,802.64
2017-07-29T00:23:47.803Z,802.62
2017-07-29T00:23:52.149Z,802.65
2017-07-29T00:23:56.502Z,802.64
2017-07-29T00:24:00.745Z,802.64
2017-07-29T00:24:05.198Z,802.65
2017-07-29T00:24:09.531Z,802.67
2017-07-29T00:24:13.996Z,802.66
2017-07-29T00:24:18.464Z,802.63
2017-07-29T00:24:22.921Z,802.63
2017-07-29T00:24:27.268Z,802.65
2017-07-29T00:24:31.628Z,802.61
2017-07-29T00:24:36.087Z,802.62
2017-07-29T00:24:40.550Z,802.62
2017-07-29T00:24:45.006Z,802.61
2017-07-29T00:24:49.235Z,802.62
2017-07-29T00:24:53.573Z,802.61
2017-07-29T00:24:57.902Z,802.64
2017-07-29T00:25:02.334Z,802.63
2017-07-29T00:25:06.704Z,802.63
2017-07-29T00:25:11.170Z,802.65
2017-07-29T00:25:15.614Z,802.62
2017-07-29T00:25:19.962Z,802.62
2017-07-29T00:25:24.420Z,802.6
2017-07-29T00:25:28.882Z,802.6
2017-07-29T00:25:33.354Z,802.61
2017-07-29T00:25:37.723Z,802.63
2017-07-29T00:25:42.191Z,802.63
2017-07-29T00:25:46.653Z,802.62
2017-07-29T00:25:51.127Z,802.57
2017-07-29T00:25:55.467Z,802.61
2017-07-29T00:25:59.703Z,802.6
2017-07-29T00:26:04.063Z,802.64
2017-07-29T00:26:08.519Z,802.61
2017-07-29T00:26:13.016Z,802.61
2017-07-29T00:26:17.474Z,802.55
2017-07-29T00:26:21.934Z,802.55
2017-07-29T00:26:26.397Z,802.63
2017-07-29T00:26:30.743Z,802.6
2017-07-29T00:26:35.219Z,802.56
2017-07-29T00:26:39.681Z,802.6
2017-07-29T00:26:44.142Z,802.63
2017-07-29T00:26:48.496Z,802.6
2017-07-29T00:26:52.705Z,802.61
2017-07-29T00:26:57.169Z,802.64
2017-07-29T00:27:01.631Z,802.6
2017-07-29T00:27:05.995Z,802.6
2017-07-29T00:27:10.094Z,802.6
2017-07-29T00:27:14.545Z,802.6
2017-07-29T00:27:18.919Z,802.6
2017-07-29T00:27:23.389Z,802.59
2017-07-29T00:27:27.616Z,802.59
2017-07-29T00:27:31.972Z,802.59
2017-07-29T00:27:36.335Z,802.6
2017-07-29T00:27:40.681Z,802.61
2017-07-29T00:27:45.124Z,802.6
2017-07-29T00:27:49.577Z,802.59
2017-07-29T00:27:53.839Z,802.59
2017-07-29T00:27:58.302Z,802.63
2017-07-29T00:28:02.762Z,802.6
2017-07-29T00:28:06.871Z,802.56
2017-07-29T00:28:11.228Z,802.6
2017-07-29T00:28:15.711Z,802.56
2017-07-29T00:28:20.158Z,802.58
2017-07-29T00:28:24.616Z,802.57
2017-07-29T00:28:28.854Z,802.59
2017-07-29T00:28:33.213Z,802.6
2017-07-29T00:28:37.443Z,802.59
2017-07-29T00:28:41.782Z,802.56
2017-07-29T00:28:45.771Z,802.58
2017-07-29T00:28:50.019Z,802.56
2017-07-29T00:28:54.243Z,802.57
2017-07-29T00:28:58.597Z,802.59
2017-07-29T00:29:03.321Z,802.57
2017-07-29T00:29:07.785Z,802.57
2017-07-29T00:29:12.122Z,802.57
2017-07-29T00:29:16.572Z,802.57
2017-07-29T00:29:21.023Z,802.58
2017-07-29T00:29:25.491Z,802.53
2017-07-29T00:29:29.824Z,802.55
2017-07-29T00:29:33.926Z,802.55
2017-07-29T00:29:38.390Z,802.54
2017-07-29T00:29:42.855Z,802.56
2017-07-29T00:29:47.320Z,802.56
2017-07-29T00:29:51.669Z,802.53
2017-07-29T00:29:56.150Z,802.52
2017-07-29T00:30:00.606Z,802.56
2017-07-29T00:30:04.826Z,802.54
2017-07-29T00:30:08.820Z,802.53
2017-07-29T00:30:13.295Z,802.54
2017-07-29T00:30:17.763Z,802.51
2017-07-29T00:30:22.229Z,802.54
2017-07-29T00:30:26.690Z,802.54
2017-07-29T00:30:31.189Z,802.52
2017-07-29T00:30:35.289Z,802.54
2017-07-29T00:30:39.618Z,802.49
2017-07-29T00:30:44.091Z,802.51
2017-07-29T00:30:48.564Z,802.51
2017-07-29T00:30:52.791Z,802.53
2017-07-29T00:30:57.006Z,802.52
2017-07-29T00:31:01.362Z,802.53
2017-07-29T00:31:05.606Z,802.49
2017-07-29T00:31:10.061Z,802.5
2017-07-29T00:31:14.411Z,802.53
2017-07-29T00:31:18.868Z,802.54
2017-07-29T00:31:23.343Z,802.5
2017-07-29T00:31:27.800Z,802.52
2017-07-29T00:31:32.266Z,802.52
2017-07-29T00:31:36.362Z,802.48
2017-07-29T00:31:40.807Z,802.5
2017-07-29T00:31:45.270Z,802.46
2017-07-29T00:31:49.612Z,802.46
2017-07-29T00:31:53.838Z,802.51
2017-07-29T00:31:57.956Z,802.48
2017-07-29T00:32:02.415Z,802.47
2017-07-29T00:32:06.755Z,802.48
2017-07-29T00:32:11.212Z,802.48
2017-07-29T00:32:15.429Z,802.42
2017-07-29T00:32:19.900Z,802.44
2017-07-29T00:32:24.237Z,802.46
2017-07-29T00:32:28.693Z,802.45
2017-07-29T00:32:33.150Z,802.47
2017-07-29T00:32:37.611Z,802.48
2017-07-29T00:32:41.828Z,802.47
2017-07-29T00:32:46.297Z,802.47
2017-07-29T00:32:50.631Z,802.46
2017-07-29T00:32:54.969Z,802.48
2017-07-29T00:32:59.205Z,802.48
2017-07-29T00:33:03.855Z,802.46
2017-07-29T00:33:08.198Z,802.46
2017-07-29T00:33:12.554Z,802.45
2017-07-29T00:33:17.013Z,802.48
2017-07-29T00:33:21.472Z,802.48
2017-07-29T00:33:25.928Z,802.46
2017-07-29T00:33:30.389Z,802.46
2017-07-29T00:33:34.618Z,802.44
2017-07-29T00:33:39.085Z,802.42
2017-07-29T00:33:43.430Z,802.43
2017-07-29T00:33:47.903Z,802.41
2017-07-29T00:33:52.364Z,802.41
2017-07-29T00:33:56.864Z,802.41
2017-07-29T00:34:01.325Z,802.44
2017-07-29T00:34:05.920Z,802.41
2017-07-29T00:34:10.136Z,802.41
2017-07-29T00:34:14.345Z,802.44
2017-07-29T00:34:18.798Z,802.46
2017-07-29T00:34:23.253Z,802.4
2017-07-29T00:34:27.608Z,802.42
2017-07-29T00:34:31.833Z,802.42
2017-07-29T00:34:36.292Z,802.42
2017-07-29T00:34:40.742Z,802.41
2017-07-29T00:34:45.205Z,802.4
2017-07-29T00:34:49.680Z,802.42
2017-07-29T00:34:54.150Z,802.36
2017-07-29T00:34:58.375Z,802.35
2017-07-29T00:35:02.841Z,802.4
2017-07-29T00:35:07.064Z,802.4
2017-07-29T00:35:11.393Z,802.39
2017-07-29T00:35:15.853Z,802.37
2017-07-29T00:35:20.323Z,802.38
2017-07-29T00:35:24.790Z,802.38
2017-07-29T00:35:29.014Z,802.36
2017-07-29T00:35:33.471Z,802.36
2017-07-29T00:35:37.706Z,802.39
2017-07-29T00:35:42.048Z,802.36
2017-07-29T00:35:46.499Z,802.37
2017-07-29T00:35:50.855Z,802.37
2017-07-29T00:35:55.326Z,802.38
2017-07-29T00:35:59.649Z,802.36
2017-07-29T00:36:03.999Z,802.35
2017-07-29T00:36:08.462Z,802.35
2017-07-29T00:36:12.691Z,802.36
2017-07-29T00:36:17.014Z,802.38
2017-07-29T00:36:21.234Z,802.38
2017-07-29T00:36:25.701Z,802.38
2017-07-29T00:36:30.170Z,802.35
2017-07-29T00:36:34.392Z,802.35
2017-07-29T00:36:38.856Z,802.4
2017-07-29T00:36:43.317Z,802.36
2017-07-29T00:36:47.800Z,802.39
2017-07-29T00:36:52.145Z,802.34
2017-07-29T00:36:56.495Z,802.36
2017-07-29T00:37:00.954Z,802.34
2017-07-29T00:37:05.299Z,802.38
2017-07-29T00:37:09.406Z,802.37
2017-07-29T00:37:13.857Z,802.38
2017-07-29T00:37:18.202Z,802.35
2017-07-29T00:37:22.654Z,802.35
2017-07-29T00:37:26.989Z,802.34
2017-07-29T00:37:31.457Z,802.38
2017-07-29T00:37:35.924Z,802.35
2017-07-29T00:37:40.398Z,802.34
2017-07-29T00:37:44.618Z,802.32
2017-07-29T00:37:49.072Z,802.3
2017-07-29T00:37:53.563Z,802.33
2017-07-29T00:37:57.914Z,802.36
2017-07-29T00:38:02.272Z,802.35
2017-07-29T00:38:06.747Z,802.35
2017-07-29T00:38:11.093Z,802.34
2017-07-29T00:38:15.314Z,802.33
2017-07-29T00:38:19.778Z,802.31
2017-07-29T00:38:24.225Z,802.36
2017-07-29T00:38:28.583Z,802.34
2017-07-29T00:38:33.024Z,802.36
2017-07-29T00:38:37.341Z,802.33
2017-07-29T00:38:41.811Z,802.29
2017-07-29T00:38:46.275Z,802.32
2017-07-29T00:38:50.737Z,802.34
2017-07-29T00:38:55.188Z,802.34
2017-07-29T00:38:59.530Z,802.31
2017-07-29T00:39:03.949Z,802.27
2017-07-29T00:39:08.290Z,802.34
2017-07-29T00:39:12.750Z,802.32
2017-07-29T00:39:17.205Z,802.35
2017-07-29T00:39:21.687Z,802.33
2017-07-29T00:39:26.145Z,802.28
2017-07-29T00:39:30.602Z,802.34
2017-07-29T00:39:35.076Z,802.29
2017-07-29T00:39:39.539Z,802.35
2017-07-29T00:39:44.003Z,802.32
2017-07-29T00:39:48.463Z,802.35
2017-07-29T00:39:52.924Z,802.32
2017-07-29T00:39:57.375Z,802.29
2017-07-29T00:40:02.078Z,802.32
2017-07-29T00:40:06.429Z,802.32
2017-07-29T00:40:10.793Z,802.35
2017-07-29T00:40:15.257Z,802.32
2017-07-29T00:40:19.711Z,802.32
2017-07-29T00:40:24.051Z,802.33
2017-07-29T00:40:28.377Z,802.32
2017-07-29T00:40:32.836Z,802.3
2017-07-29T00:40:37.186Z,802.32
2017-07-29T00:40:41.653Z,802.29
2017-07-29T00:40:46.114Z,802.28
2017-07-29T00:40:50.566Z,802.26
2017-07-29T00:40:55.014Z,802.28
2017-07-29T00:40:59.248Z,802.26
2017-07-29T00:41:03.600Z,802.31
2017-07-29T00:41:08.065Z,802.31
2017-07-29T00:41:12.533Z,802.33
2017-07-29T00:41:17.007Z,802.32
2017-07-29T00:41:21.496Z,802.32
2017-07-29T00:41:25.959Z,802.32
2017-07-29T00:41:30.413Z,802.3
2017-07-29T00:41:34.766Z,802.34
2017-07-29T00:41:39.138Z,802.31
2017-07-29T00:41:43.487Z,802.25
2017-07-29T00:41:47.944Z,802.3
2017-07-29T00:41:52.399Z,802.3
2017-07-29T00:41:56.866Z,802.35
2017-07-29T00:42:01.327Z,802.31
2017-07-29T00:42:05.688Z,802.31
2017-07-29T00:42:10.162Z,802.28
2017-07-29T00:42:14.492Z,802.27
2017-07-29T00:42:18.956Z,802.32
2017-07-29T00:42:23.421Z,802.31
2017-07-29T00:42:27.894Z,802.32
2017-07-29T00:42:32.220Z,802.31
2017-07-29T00:42:36.550Z,802.31
2017-07-29T00:42:40.995Z,802.31
2017-07-29T00:42:45.347Z,802.33
2017-07-29T00:42:49.812Z,802.27
2017-07-29T00:42:54.143Z,802.31
2017-07-29T00:42:58.479Z,802.31
2017-07-29T00:43:02.936Z,802.3
2017-07-29T00:43:07.284Z,802.31
2017-07-29T00:43:11.742Z,802.3
2017-07-29T00:43:16.089Z,802.31
2017-07-29T00:43:20.548Z,802.34
2017-07-29T00:43:24.766Z,802.32
2017-07-29T00:43:29.112Z,802.29
2017-07-29T00:43:33.589Z,802.31
2017-07-29T00:43:38.062Z,802.34
2017-07-29T00:43:42.507Z,802.33
2017-07-29T00:43:46.973Z,802.31
2017-07-29T00:43:51.438Z,802.3
2017-07-29T00:43:55.789Z,802.32
2017-07-29T00:44:00.139Z,802.35
2017-07-29T00:44:04.486Z,802.3
2017-07-29T00:44:08.599Z,802.3
2017-07-29T00:44:12.929Z,802.32
2017-07-29T00:44:17.369Z,802.34
2017-07-29T00:44:21.703Z,802.3
2017-07-29T00:44:26.177Z,802.31
2017-07-29T00:44:30.620Z,802.36
2017-07-29T00:44:34.960Z,802.32
2017-07-29T00:44:39.303Z,802.25
2017-07-29T00:44:43.763Z,802.31
2017-07-29T00:44:48.238Z,802.27
2017-07-29T00:44:52.569Z,802.27
2017-07-29T00:44:56.925Z,802.32
2017-07-29T00:45:01.143Z,802.29
2017-07-29T00:45:05.482Z,802.3
2017-07-29T00:45:09.713Z,802.33
2017-07-29T00:45:14.088Z,802.3
2017-07-29T00:45:18.530Z,802.31
2017-07-29T00:45:22.879Z,802.31
2017-07-29T00:45:27.355Z,802.29
2017-07-29T00:45:31.840Z,802.33
2017-07-29T00:45:36.306Z,802.35
2017-07-29T00:45:40.751Z,802.29
2017-07-29T00:45:45.080Z,802.32
2017-07-29T00:45:49.178Z,802.31
2017-07-29T00:45:53.522Z,802.31
2017-07-29T00:45:57.993Z,802.33
2017-07-29T00:46:02.806Z,802.31
2017-07-29T00:46:07.025Z,802.32
2017-07-29T00:46:11.248Z,802.31
2017-07-29T00:46:15.711Z,802.31
2017-07-29T00:46:20.163Z,802.27
2017-07-29T00:46:24.648Z,802.3
2017-07-29T00:46:28.993Z,802.3
2017-07-29T00:46:33.450Z,802.29
2017-07-29T00:46:37.806Z,802.3
2017-07-29T00:46:42.266Z,802.3
2017-07-29T00:46:46.731Z,802.3
2017-07-29T00:46:51.175Z,802.33
2017-07-29T00:46:55.643Z,802.31
2017-07-29T00:46:59.848Z,802.31
2017-07-29T00:47:04.057Z,802.31
2017-07-29T00:47:08.517Z,802.29
2017-07-29T00:47:12.887Z,802.28
2017-07-29T00:47:17.335Z,802.3
2017-07-29T00:47:21.795Z,802.32
2017-07-29T00:47:26.140Z,802.31
2017-07-29T00:47:30.591Z,802.32
2017-07-29T00:47:34.937Z,802.3
2017-07-29T00:47:39.274Z,802.3
2017-07-29T00:47:43.738Z,802.31
2017-07-29T00:47:48.198Z,802.32
2017-07-29T00:47:52.536Z,802.32
2017-07-29T00:47:56.886Z,802.3
2017-07-29T00:48:01.346Z,802.31
2017-07-29T00:48:05.728Z,802.34
2017-07-29T00:48:09.822Z,802.3
2017-07-29T00:48:14.277Z,802.31
2017-07-29T00:48:18.737Z,802.29
2017-07-29T00:48:23.187Z,802.32
2017-07-29T00:48:27.531Z,802.32
2017-07-29T00:48:31.996Z,802.31
2017-07-29T00:48:36.375Z,802.3
2017-07-29T00:48:40.713Z,802.3
2017-07-29T00:48:45.163Z,802.32
2017-07-29T00:48:49.627Z,802.28
2017-07-29T00:48:54.093Z,802.3
2017-07-29T00:48:58.454Z,802.25
2017-07-29T00:49:02.797Z,802.33
2017-07-29T00:49:07.149Z,802.3
2017-07-29T00:49:11.603Z,802.3
2017-07-29T00:49:16.069Z,802.3
2017-07-29T00:49:20.522Z,802.29
2017-07-29T00:49:24.866Z,802.3
2017-07-29T00:49:29.209Z,802.25
2017-07-29T00:49:33.676Z,802.22
2017-07-29T00:49:38.013Z,802.25
2017-07-29T00:49:42.476Z,802.28
2017-07-29T00:49:46.937Z,802.31
2017-07-29T00:49:51.385Z,802.31
2017-07-29T00:49:55.857Z,802.31
2017-07-29T00:50:00.200Z,802.29
2017-07-29T00:50:04.626Z,802.31
2017-07-29T00:50:08.860Z,802.3
2017-07-29T00:50:13.315Z,802.28
2017-07-29T00:50:17.531Z,802.3
2017-07-29T00:50:22.001Z,802.32
2017-07-29T00:50:26.346Z,802.31
2017-07-29T00:50:30.691Z,802.3
2017-07-29T00:50:35.038Z,802.3
2017-07-29T00:50:39.502Z,802.33
2017-07-29T00:50:43.849Z,802.3
2017-07-29T00:50:48.310Z,802.3
2017-07-29T00:50:52.640Z,802.34
2017-07-29T00:50:56.986Z,802.31
2017-07-29T00:51:01.437Z,802.32
2017-07-29T00:51:05.659Z,802.28
2017-07-29T00:51:09.792Z,802.27
2017-07-29T00:51:14.487Z,802.31
2017-07-29T00:51:18.950Z,802.31
2017-07-29T00:51:23.409Z,802.3
2017-07-29T00:51:27.752Z,802.27
2017-07-29T00:51:32.218Z,802.29
2017-07-29T00:51:36.670Z,802.28
2017-07-29T00:51:41.144Z,802.29
2017-07-29T00:51:45.483Z,802.29
2017-07-29T00:51:49.965Z,802.28
2017-07-29T00:51:54.298Z,802.28
2017-07-29T00:51:58.528Z,802.3
2017-07-29T00:52:02.754Z,802.27
2017-07-29T00:52:07.077Z,802.29
2017-07-29T00:52:11.309Z,802.28
2017-07-29T00:52:15.770Z,802.28
2017-07-29T00:52:20.230Z,802.22
2017-07-29T00:52:24.689Z,802.26
2017-07-29T00:52:29.154Z,802.29
2017-07-29T00:52:33.613Z,802.3
2017-07-29T00:52:37.963Z,802.26
2017-07-29T00:52:42.436Z,802.28
2017-07-29T00:52:46.783Z,802.33
2017-07-29T00:52:51.234Z,802.31
2017-07-29T00:52:55.716Z,802.29
2017-07-29T00:52:59.940Z,802.27
2017-07-29T00:53:04.165Z,802.31
2017-07-29T00:53:08.628Z,802.27
2017-07-29T00:53:12.881Z,802.26
2017-07-29T00:53:17.345Z,802.23
2017-07-29T00:53:21.792Z,802.26
2017-07-29T00:53:26.133Z,802.29
2017-07-29T00:53:30.595Z,802.3
2017-07-29T00:53:34.830Z,802.28
2017-07-29T00:53:39.291Z,802.27
2017-07-29T00:53:43.766Z,802.28
2017-07-29T00:53:48.228Z,802.3
2017-07-29T00:53:52.576Z,802.27
2017-07-29T00:53:56.915Z,802.24
2017-07-29T00:54:01.372Z,802.27
2017-07-29T00:54:05.591Z,802.29
2017-07-29T00:54:09.802Z,802.28
2017-07-29T00:54:14.152Z,802.28
2017-07-29T00:54:18.605Z,802.29
2017-07-29T00:54:23.068Z,802.3
2017-07-29T00:54:27.519Z,802.28
2017-07-29T00:54:31.974Z,802.28
2017-07-29T00:54:36.189Z,802.31
2017-07-29T00:54:40.641Z,802.3
2017-07-29T00:54:45.094Z,802.27
2017-07-29T00:54:49.628Z,802.3
2017-07-29T00:54:54.085Z,802.29
2017-07-29T00:54:58.432Z,802.27
2017-07-29T00:55:02.925Z,802.29